createdAt,value
2023-03-12T00:00:49.388Z,84.45
2023-03-12T00:01:49.325Z,84.41
2023-03-12T00:02:49.477Z,84.41
2023-03-12T00:03:49.354Z,84.41
2023-03-12T00:04:49.292Z,84.41
2023-03-12T00:05:49.287Z,84.41
2023-03-12T00:06:49.284Z,84.31
2023-03-12T00:07:49.257Z,84.20
2023-03-12T00:08:49.319Z,84.20
2023-03-12T00:09:50.198Z,84.10
2023-03-12T00:10:49.222Z,84.10
2023-03-12T00:11:49.230Z,83.89
2023-03-12T00:12:49.189Z,83.78
2023-03-12T00:13:49.218Z,83.78
2023-03-12T00:14:49.210Z,83.78
2023-03-12T00:15:49.254Z,83.68
2023-03-12T00:16:49.205Z,83.68
2023-03-12T00:17:49.222Z,83.58
2023-03-12T00:18:49.162Z,83.68
2023-03-12T00:19:49.124Z,83.78
2023-03-12T00:20:49.169Z,83.78
2023-03-12T00:21:49.107Z,83.68
2023-03-12T00:22:49.107Z,83.58
2023-03-12T00:23:49.086Z,83.47
2023-03-12T00:24:49.048Z,83.47
2023-03-12T00:25:49.045Z,83.47
2023-03-12T00:26:49.058Z,83.47
2023-03-12T00:27:49.067Z,83.47
2023-03-12T00:28:49.069Z,83.58
2023-03-12T00:29:49.030Z,83.58
2023-03-12T00:30:48.995Z,83.64
2023-03-12T00:31:49.059Z,83.75
2023-03-12T00:32:49.053Z,83.95
2023-03-12T00:33:49.005Z,83.95
2023-03-12T00:34:48.941Z,83.95
2023-03-12T00:35:49.081Z,83.95
2023-03-12T00:36:48.937Z,83.85
2023-03-12T00:37:48.985Z,83.85
2023-03-12T00:38:48.946Z,83.95
2023-03-12T00:39:48.913Z,84.17
2023-03-12T00:40:48.874Z,84.17
2023-03-12T00:41:48.900Z,84.17
2023-03-12T00:42:48.886Z,84.27
2023-03-12T00:43:48.890Z,84.27
2023-03-12T00:44:48.931Z,84.27
2023-03-12T00:45:48.827Z,84.17
2023-03-12T00:46:48.852Z,84.06
2023-03-12T00:47:48.785Z,84.06
2023-03-12T00:48:48.821Z,84.06
2023-03-12T00:49:49.115Z,84.20
2023-03-12T00:50:48.765Z,84.17
2023-03-12T00:51:48.754Z,84.17
2023-03-12T00:52:48.759Z,84.10
2023-03-12T00:53:48.757Z,84.20
2023-03-12T00:54:48.753Z,84.20
2023-03-12T00:55:49.649Z,84.20
2023-03-12T00:56:48.710Z,84.10
2023-03-12T00:57:48.750Z,84.10
2023-03-12T00:58:48.678Z,84.00
2023-03-12T00:59:48.707Z,83.89
2023-03-12T01:00:48.709Z,84.00
2023-03-12T01:01:48.678Z,84.00
2023-03-12T01:02:48.628Z,83.89
2023-03-12T01:03:48.657Z,83.89
2023-03-12T01:04:48.610Z,83.89
2023-03-12T01:05:48.595Z,83.78
2023-03-12T01:06:48.597Z,83.68
2023-03-12T01:07:48.649Z,83.68
2023-03-12T01:08:48.589Z,83.58
2023-03-12T01:09:48.556Z,83.58
2023-03-12T01:10:48.545Z,83.58
2023-03-12T01:11:48.560Z,83.68
2023-03-12T01:12:48.527Z,83.93
2023-03-12T01:13:48.586Z,83.93
2023-03-12T01:14:48.506Z,84.03
2023-03-12T01:15:48.609Z,84.14
2023-03-12T01:16:49.844Z,84.10
2023-03-12T01:17:48.481Z,84.03
2023-03-12T01:18:48.445Z,84.03
2023-03-12T01:19:48.479Z,83.93
2023-03-12T01:20:48.457Z,83.83
2023-03-12T01:21:48.439Z,83.93
2023-03-12T01:22:48.413Z,83.83
2023-03-12T01:23:48.426Z,83.83
2023-03-12T01:24:48.393Z,83.83
2023-03-12T01:25:48.432Z,83.93
2023-03-12T01:26:48.364Z,84.03
2023-03-12T01:27:48.378Z,83.93
2023-03-12T01:28:48.376Z,83.93
2023-03-12T01:29:48.333Z,83.93
2023-03-12T01:30:48.355Z,83.93
2023-03-12T01:31:48.717Z,83.83
2023-03-12T01:32:48.337Z,83.83
2023-03-12T01:33:48.338Z,83.72
2023-03-12T01:34:48.290Z,83.72
2023-03-12T01:35:48.369Z,83.62
2023-03-12T01:36:48.272Z,83.62
2023-03-12T01:37:48.653Z,83.62
2023-03-12T01:38:48.256Z,83.51
2023-03-12T01:39:48.205Z,83.40
2023-03-12T01:40:48.210Z,83.20
2023-03-12T01:41:48.234Z,83.09
2023-03-12T01:42:48.181Z,83.06
2023-03-12T01:43:48.232Z,82.95
2023-03-12T01:44:48.188Z,82.84
2023-03-12T01:45:48.219Z,82.64
2023-03-12T01:46:48.168Z,82.53
2023-03-12T01:47:48.189Z,82.53
2023-03-12T01:48:48.153Z,82.53
2023-03-12T01:49:48.187Z,82.53
2023-03-12T01:50:48.114Z,82.53
2023-03-12T01:51:48.149Z,82.43
2023-03-12T01:52:48.094Z,82.32
2023-03-12T01:53:48.099Z,82.32
2023-03-12T01:54:48.088Z,82.22
2023-03-12T01:55:48.060Z,82.32
2023-03-12T01:56:48.042Z,82.32
2023-03-12T01:57:48.075Z,82.53
2023-03-12T01:58:48.013Z,82.53
2023-03-12T01:59:48.595Z,82.64
2023-03-12T02:00:48.033Z,82.53
2023-03-12T02:01:48.033Z,82.53
2023-03-12T02:02:47.982Z,82.43
2023-03-12T02:03:47.964Z,82.64
2023-03-12T02:04:47.966Z,82.64
2023-03-12T02:05:47.940Z,82.64
2023-03-12T02:06:47.920Z,82.64
2023-03-12T02:07:47.944Z,82.53
2023-03-12T02:08:47.904Z,82.53
2023-03-12T02:09:47.897Z,82.53
2023-03-12T02:10:47.907Z,82.74
2023-03-12T02:11:47.856Z,82.74
2023-03-12T02:12:47.867Z,82.74
2023-03-12T02:13:47.900Z,82.74
2023-03-12T02:14:47.831Z,82.74
2023-03-12T02:15:47.838Z,82.74
2023-03-12T02:16:47.896Z,82.74
2023-03-12T02:17:47.781Z,82.64
2023-03-12T02:18:47.797Z,82.53
2023-03-12T02:19:48.478Z,82.53
2023-03-12T02:20:47.767Z,82.43
2023-03-12T02:21:47.760Z,82.43
2023-03-12T02:22:47.737Z,82.43
2023-03-12T02:23:47.742Z,82.43
2023-03-12T02:24:47.712Z,82.43
2023-03-12T02:25:47.736Z,82.43
2023-03-12T02:26:47.702Z,82.32
2023-03-12T02:27:47.687Z,82.32
2023-03-12T02:28:47.660Z,82.32
2023-03-12T02:29:47.695Z,82.43
2023-03-12T02:30:47.650Z,82.32
2023-03-12T02:31:47.739Z,82.32
2023-03-12T02:32:47.813Z,82.22
2023-03-12T02:33:47.609Z,82.12
2023-03-12T02:34:47.613Z,82.22
2023-03-12T02:35:47.606Z,82.32
2023-03-12T02:36:47.577Z,82.32
2023-03-12T02:37:47.587Z,82.53
2023-03-12T02:38:47.571Z,82.53
2023-03-12T02:39:47.541Z,82.53
2023-03-12T02:40:47.534Z,82.53
2023-03-12T02:41:47.527Z,82.53
2023-03-12T02:42:47.565Z,82.53
2023-03-12T02:43:47.576Z,82.53
2023-03-12T02:44:47.478Z,82.53
2023-03-12T02:45:47.502Z,82.53
2023-03-12T02:46:47.455Z,82.53
2023-03-12T02:47:47.475Z,82.53
2023-03-12T02:48:47.439Z,82.53
2023-03-12T02:49:47.485Z,82.53
2023-03-12T02:50:47.417Z,82.64
2023-03-12T02:51:47.429Z,82.84
2023-03-12T02:52:47.404Z,82.91
2023-03-12T02:53:47.502Z,83.12
2023-03-12T02:54:47.797Z,83.23
2023-03-12T02:55:47.380Z,83.23
2023-03-12T02:56:47.360Z,83.23
2023-03-12T02:57:47.350Z,83.33
2023-03-12T02:58:47.368Z,83.23
2023-03-12T02:59:47.388Z,83.23
2023-03-12T03:00:47.338Z,83.26
2023-03-12T03:01:47.345Z,83.33
2023-03-12T03:02:47.291Z,83.33
2023-03-12T03:03:47.360Z,83.23
2023-03-12T03:04:47.295Z,83.23
2023-03-12T03:05:47.256Z,83.23
2023-03-12T03:06:47.274Z,83.23
2023-03-12T03:07:47.233Z,83.23
2023-03-12T03:08:47.217Z,83.12
2023-03-12T03:09:47.202Z,83.23
2023-03-12T03:10:47.223Z,83.12
2023-03-12T03:11:47.219Z,83.23
2023-03-12T03:12:47.246Z,83.23
2023-03-12T03:13:47.174Z,83.23
2023-03-12T03:14:47.148Z,83.23
2023-03-12T03:15:47.201Z,83.23
2023-03-12T03:16:47.123Z,83.23
2023-03-12T03:17:47.183Z,83.33
2023-03-12T03:18:47.204Z,83.33
2023-03-12T03:19:47.109Z,83.33
2023-03-12T03:20:47.133Z,83.23
2023-03-12T03:21:47.097Z,83.33
2023-03-12T03:22:47.135Z,83.33
2023-03-12T03:23:47.056Z,83.33
2023-03-12T03:24:47.109Z,83.33
2023-03-12T03:25:47.030Z,83.33
2023-03-12T03:26:47.055Z,83.33
2023-03-12T03:27:47.017Z,83.33
2023-03-12T03:28:48.131Z,83.33
2023-03-12T03:29:53.634Z,83.23
2023-03-12T03:30:47.069Z,83.12
2023-03-12T03:31:46.998Z,83.12
2023-03-12T03:32:46.987Z,83.12
2023-03-12T03:33:46.957Z,83.12
2023-03-12T03:34:46.986Z,83.12
2023-03-12T03:35:46.975Z,83.23
2023-03-12T03:36:46.949Z,83.23
2023-03-12T03:37:46.899Z,83.23
2023-03-12T03:38:47.581Z,83.23
2023-03-12T03:39:46.879Z,83.23
2023-03-12T03:40:46.853Z,83.23
2023-03-12T03:41:47.176Z,83.23
2023-03-12T03:42:46.852Z,83.23
2023-03-12T03:43:46.836Z,83.23
2023-03-12T03:44:46.815Z,83.33
2023-03-12T03:45:46.861Z,83.44
2023-03-12T03:46:47.166Z,83.33
2023-03-12T03:47:46.818Z,83.33
2023-03-12T03:48:46.854Z,83.33
2023-03-12T03:49:46.778Z,83.33
2023-03-12T03:50:46.727Z,83.33
2023-03-12T03:51:46.754Z,83.44
2023-03-12T03:52:47.150Z,83.54
2023-03-12T03:53:46.733Z,83.54
2023-03-12T03:54:46.735Z,83.54
2023-03-12T03:55:46.692Z,83.54
2023-03-12T03:56:46.715Z,83.54
2023-03-12T03:57:46.674Z,83.44
2023-03-12T03:58:46.957Z,83.33
2023-03-12T03:59:46.662Z,83.33
2023-03-12T04:00:46.631Z,83.33
2023-03-12T04:01:46.618Z,83.23
2023-03-12T04:02:46.595Z,83.33
2023-03-12T04:03:46.606Z,83.23
2023-03-12T04:04:46.632Z,83.12
2023-03-12T04:05:46.742Z,83.23
2023-03-12T04:06:46.601Z,83.23
2023-03-12T04:07:46.568Z,83.33
2023-03-12T04:08:46.549Z,83.33
2023-03-12T04:09:46.541Z,83.23
2023-03-12T04:10:46.573Z,83.23
2023-03-12T04:11:47.110Z,83.23
2023-03-12T04:12:46.512Z,83.12
2023-03-12T04:13:46.515Z,83.12
2023-03-12T04:14:46.534Z,83.12
2023-03-12T04:15:46.521Z,83.12
2023-03-12T04:16:46.516Z,83.18
2023-03-12T04:17:46.456Z,83.08
2023-03-12T04:18:46.448Z,83.08
2023-03-12T04:19:46.504Z,82.98
2023-03-12T04:20:46.413Z,83.01
2023-03-12T04:21:46.404Z,83.01
2023-03-12T04:22:46.418Z,82.98
2023-03-12T04:23:46.383Z,83.08
2023-03-12T04:24:46.350Z,83.08
2023-03-12T04:25:46.380Z,83.08
2023-03-12T04:26:46.350Z,83.08
2023-03-12T04:27:46.322Z,83.18
2023-03-12T04:28:46.404Z,83.08
2023-03-12T04:29:46.326Z,83.08
2023-03-12T04:30:46.283Z,83.01
2023-03-12T04:31:46.383Z,83.08
2023-03-12T04:32:46.314Z,83.08
2023-03-12T04:33:46.284Z,83.12
2023-03-12T04:34:46.307Z,83.08
2023-03-12T04:35:46.256Z,82.98
2023-03-12T04:36:46.240Z,83.12
2023-03-12T04:37:46.227Z,83.08
2023-03-12T04:38:46.215Z,83.08
2023-03-12T04:39:46.233Z,83.08
2023-03-12T04:40:46.222Z,83.08
2023-03-12T04:41:46.161Z,83.40
2023-03-12T04:42:46.191Z,83.50
2023-03-12T04:43:46.201Z,83.40
2023-03-12T04:44:46.130Z,83.29
2023-03-12T04:45:46.150Z,83.29
2023-03-12T04:46:46.352Z,83.18
2023-03-12T04:47:46.154Z,83.18
2023-03-12T04:48:46.149Z,83.08
2023-03-12T04:49:46.103Z,83.08
2023-03-12T04:50:46.084Z,83.18
2023-03-12T04:51:46.061Z,83.18
2023-03-12T04:52:46.127Z,83.18
2023-03-12T04:53:46.123Z,83.08
2023-03-12T04:54:48.030Z,83.08
2023-03-12T04:55:46.041Z,83.29
2023-03-12T04:56:46.093Z,83.40
2023-03-12T04:57:45.980Z,83.50
2023-03-12T04:58:46.048Z,83.61
2023-03-12T04:59:45.973Z,83.71
2023-03-12T05:00:45.987Z,83.71
2023-03-12T05:01:45.961Z,83.81
2023-03-12T05:02:45.977Z,83.71
2023-03-12T05:03:45.959Z,83.71
2023-03-12T05:04:45.960Z,83.71
2023-03-12T05:05:45.915Z,83.71
2023-03-12T05:06:45.898Z,83.71
2023-03-12T05:07:45.901Z,83.75
2023-03-12T05:08:45.883Z,83.75
2023-03-12T05:09:45.880Z,83.75
2023-03-12T05:10:45.887Z,83.75
2023-03-12T05:11:45.840Z,83.64
2023-03-12T05:12:45.821Z,83.75
2023-03-12T05:13:45.823Z,83.75
2023-03-12T05:14:45.808Z,83.75
2023-03-12T05:15:45.842Z,83.75
2023-03-12T05:16:45.866Z,83.71
2023-03-12T05:17:45.780Z,83.71
2023-03-12T05:18:45.808Z,83.71
2023-03-12T05:19:45.773Z,83.71
2023-03-12T05:20:45.744Z,83.71
2023-03-12T05:21:45.756Z,83.71
2023-03-12T05:22:45.719Z,83.71
2023-03-12T05:23:45.706Z,83.71
2023-03-12T05:24:45.680Z,83.61
2023-03-12T05:25:45.683Z,83.50
2023-03-12T05:26:45.680Z,83.61
2023-03-12T05:27:45.723Z,83.61
2023-03-12T05:28:45.661Z,83.61
2023-03-12T05:29:45.641Z,83.61
2023-03-12T05:30:45.639Z,83.61
2023-03-12T05:31:46.519Z,83.71
2023-03-12T05:32:46.655Z,83.61
2023-03-12T05:33:45.642Z,83.61
2023-03-12T05:34:45.594Z,83.61
2023-03-12T05:35:45.607Z,83.47
2023-03-12T05:36:45.593Z,83.57
2023-03-12T05:37:45.574Z,83.47
2023-03-12T05:38:45.568Z,83.47
2023-03-12T05:39:45.593Z,83.47
2023-03-12T05:40:45.532Z,83.47
2023-03-12T05:41:45.583Z,83.36
2023-03-12T05:42:45.506Z,83.25
2023-03-12T05:43:45.497Z,83.25
2023-03-12T05:44:45.481Z,83.36
2023-03-12T05:45:45.605Z,83.36
2023-03-12T05:46:45.476Z,83.47
2023-03-12T05:47:45.524Z,83.57
2023-03-12T05:48:45.427Z,83.57
2023-03-12T05:49:45.433Z,83.57
2023-03-12T05:50:45.397Z,83.57
2023-03-12T05:51:45.438Z,83.67
2023-03-12T05:52:45.393Z,83.67
2023-03-12T05:53:45.444Z,83.67
2023-03-12T05:54:45.386Z,83.67
2023-03-12T05:55:45.419Z,83.67
2023-03-12T05:56:45.355Z,83.67
2023-03-12T05:57:45.381Z,83.67
2023-03-12T05:58:45.372Z,83.78
2023-03-12T05:59:45.311Z,83.78
2023-03-12T06:00:45.317Z,83.88
2023-03-12T06:01:45.291Z,83.74
2023-03-12T06:02:45.349Z,83.84
2023-03-12T06:03:45.512Z,83.84
2023-03-12T06:04:45.253Z,83.95
2023-03-12T06:05:45.316Z,84.16
2023-03-12T06:06:45.258Z,84.26
2023-03-12T06:07:45.301Z,84.26
2023-03-12T06:08:45.226Z,84.26
2023-03-12T06:09:45.186Z,84.16
2023-03-12T06:10:45.263Z,84.05
2023-03-12T06:11:45.190Z,83.95
2023-03-12T06:12:45.148Z,83.95
2023-03-12T06:13:45.169Z,83.91
2023-03-12T06:14:45.128Z,83.70
2023-03-12T06:15:45.235Z,83.59
2023-03-12T06:16:45.151Z,83.70
2023-03-12T06:17:45.122Z,83.91
2023-03-12T06:18:45.179Z,84.01
2023-03-12T06:19:45.158Z,83.91
2023-03-12T06:20:45.077Z,83.80
2023-03-12T06:21:45.078Z,83.80
2023-03-12T06:22:45.079Z,83.91
2023-03-12T06:23:45.045Z,83.70
2023-03-12T06:24:46.019Z,83.39
2023-03-12T06:25:45.089Z,83.39
2023-03-12T06:26:45.071Z,83.18
2023-03-12T06:27:45.025Z,83.18
2023-03-12T06:28:44.989Z,83.07
2023-03-12T06:29:44.976Z,82.97
2023-03-12T06:30:44.966Z,82.93
2023-03-12T06:31:45.040Z,82.82
2023-03-12T06:32:45.019Z,83.04
2023-03-12T06:33:44.968Z,82.82
2023-03-12T06:34:44.965Z,82.62
2023-03-12T06:35:44.941Z,82.31
2023-03-12T06:36:44.938Z,82.31
2023-03-12T06:37:44.972Z,82.20
2023-03-12T06:38:44.877Z,82.20
2023-03-12T06:39:44.987Z,82.20
2023-03-12T06:40:44.908Z,82.31
2023-03-12T06:41:44.816Z,82.51
2023-03-12T06:42:44.827Z,82.48
2023-03-12T06:43:44.860Z,82.37
2023-03-12T06:44:44.819Z,82.27
2023-03-12T06:45:44.836Z,82.27
2023-03-12T06:46:44.870Z,82.17
2023-03-12T06:47:44.778Z,82.06
2023-03-12T06:48:44.790Z,81.92
2023-03-12T06:49:44.766Z,81.71
2023-03-12T06:50:44.759Z,81.50
2023-03-12T06:51:44.757Z,81.40
2023-03-12T06:52:44.739Z,81.29
2023-03-12T06:53:44.718Z,81.29
2023-03-12T06:54:44.692Z,81.29
2023-03-12T06:55:44.700Z,81.29
2023-03-12T06:56:44.708Z,81.19
2023-03-12T06:57:44.663Z,81.09
2023-03-12T06:58:44.662Z,81.29
2023-03-12T06:59:44.619Z,81.40
2023-03-12T07:00:44.701Z,81.29
2023-03-12T07:01:44.720Z,81.29
2023-03-12T07:02:44.616Z,81.50
2023-03-12T07:03:44.585Z,81.50
2023-03-12T07:04:44.670Z,81.40
2023-03-12T07:05:44.643Z,81.50
2023-03-12T07:06:44.616Z,81.60
2023-03-12T07:07:44.590Z,81.50
2023-03-12T07:08:44.576Z,81.50
2023-03-12T07:09:44.570Z,81.40
2023-03-12T07:10:44.532Z,81.29
2023-03-12T07:11:44.558Z,81.29
2023-03-12T07:12:44.589Z,81.50
2023-03-12T07:13:44.519Z,81.50
2023-03-12T07:14:44.486Z,81.40
2023-03-12T07:15:44.626Z,81.36
2023-03-12T07:16:44.477Z,81.36
2023-03-12T07:17:44.469Z,81.26
2023-03-12T07:18:44.445Z,81.36
2023-03-12T07:19:44.480Z,81.26
2023-03-12T07:20:44.408Z,81.46
2023-03-12T07:21:44.410Z,81.43
2023-03-12T07:22:44.379Z,81.32
2023-03-12T07:23:44.400Z,81.01
2023-03-12T07:24:44.403Z,80.91
2023-03-12T07:25:44.372Z,80.80
2023-03-12T07:26:44.366Z,80.56
2023-03-12T07:27:44.349Z,80.98
2023-03-12T07:28:44.321Z,80.87
2023-03-12T07:29:44.325Z,80.52
2023-03-12T07:30:44.325Z,80.42
2023-03-12T07:31:44.302Z,79.06
2023-03-12T07:32:44.485Z,78.34
2023-03-12T07:33:44.395Z,78.13
2023-03-12T07:34:44.281Z,78.96
2023-03-12T07:35:44.351Z,78.96
2023-03-12T07:36:44.396Z,79.13
2023-03-12T07:37:44.223Z,79.03
2023-03-12T07:38:44.199Z,79.03
2023-03-12T07:39:44.270Z,79.13
2023-03-12T07:40:44.713Z,79.24
2023-03-12T07:41:44.707Z,79.20
2023-03-12T07:42:44.224Z,79.55
2023-03-12T07:43:44.549Z,78.72
2023-03-12T07:44:44.271Z,78.72
2023-03-12T07:45:44.422Z,78.61
2023-03-12T07:46:44.587Z,78.58
2023-03-12T07:47:44.711Z,78.78
2023-03-12T07:48:44.462Z,78.72
2023-03-12T07:49:44.457Z,78.58
2023-03-12T07:50:44.461Z,78.58
2023-03-12T07:51:44.080Z,78.68
2023-03-12T07:52:44.481Z,78.78
2023-03-12T07:53:44.382Z,78.68
2023-03-12T07:54:44.082Z,78.68
2023-03-12T07:55:44.138Z,78.47
2023-03-12T07:56:44.153Z,78.37
2023-03-12T07:57:44.514Z,77.44
2023-03-12T07:58:44.133Z,77.23
2023-03-12T07:59:44.468Z,77.82
2023-03-12T08:00:44.528Z,78.03
2023-03-12T08:01:46.259Z,78.13
2023-03-12T08:02:44.052Z,78.13
2023-03-12T08:03:44.167Z,78.23
2023-03-12T08:04:44.316Z,78.13
2023-03-12T08:05:43.917Z,78.03
2023-03-12T08:06:44.576Z,77.40
2023-03-12T08:07:44.231Z,76.78
2023-03-12T08:08:44.276Z,77.20
2023-03-12T08:09:44.366Z,78.34
2023-03-12T08:10:44.097Z,78.44
2023-03-12T08:11:43.846Z,78.65
2023-03-12T08:12:44.290Z,78.34
2023-03-12T08:13:44.372Z,78.34
2023-03-12T08:14:44.098Z,78.86
2023-03-12T08:15:43.796Z,79.27
2023-03-12T08:16:44.494Z,79.27
2023-03-12T08:17:44.149Z,79.38
2023-03-12T08:18:43.777Z,79.69
2023-03-12T08:19:44.156Z,80.10
2023-03-12T08:20:44.029Z,80.41
2023-03-12T08:21:44.094Z,80.45
2023-03-12T08:22:44.086Z,80.55
2023-03-12T08:23:44.259Z,80.87
2023-03-12T08:24:44.147Z,81.70
2023-03-12T08:25:43.681Z,82.01
2023-03-12T08:26:43.678Z,82.67
2023-03-12T08:27:43.681Z,83.08
2023-03-12T08:28:43.695Z,83.60
2023-03-12T08:29:43.640Z,83.56
2023-03-12T08:30:43.705Z,84.01
2023-03-12T08:32:01.533Z,84.22
2023-03-12T08:32:43.648Z,84.64
2023-03-12T08:33:43.650Z,85.47
2023-03-12T08:34:43.617Z,85.88
2023-03-12T08:35:43.680Z,86.09
2023-03-12T08:36:43.591Z,86.41
2023-03-12T08:37:43.549Z,86.51
2023-03-12T08:38:43.547Z,87.13
2023-03-12T08:39:43.520Z,87.79
2023-03-12T08:40:43.483Z,88.21
2023-03-12T08:41:43.491Z,88.62
2023-03-12T08:42:43.542Z,88.62
2023-03-12T08:43:43.499Z,88.79
2023-03-12T08:44:43.468Z,89.56
2023-03-12T08:45:43.472Z,89.98
2023-03-12T08:46:43.432Z,90.04
2023-03-12T08:47:43.457Z,90.04
2023-03-12T08:48:43.467Z,90.14
2023-03-12T08:49:43.435Z,90.14
2023-03-12T08:50:43.411Z,90.14
2023-03-12T08:51:43.371Z,90.35
2023-03-12T08:52:43.389Z,90.45
2023-03-12T08:53:43.383Z,90.35
2023-03-12T08:54:43.428Z,90.25
2023-03-12T08:55:43.349Z,90.56
2023-03-12T08:56:43.325Z,90.45
2023-03-12T08:57:43.339Z,90.77
2023-03-12T08:58:43.315Z,90.87
2023-03-12T08:59:43.403Z,90.77
2023-03-12T09:00:43.310Z,90.72
2023-03-12T09:01:44.019Z,90.72
2023-03-12T09:02:43.297Z,90.93
2023-03-12T09:03:43.285Z,90.93
2023-03-12T09:04:43.278Z,91.18
2023-03-12T09:05:43.223Z,91.39
2023-03-12T09:06:43.262Z,91.28
2023-03-12T09:07:43.215Z,91.28
2023-03-12T09:08:43.305Z,91.60
2023-03-12T09:09:43.252Z,91.60
2023-03-12T09:10:43.177Z,91.60
2023-03-12T09:11:43.176Z,91.49
2023-03-12T09:12:43.183Z,91.49
2023-03-12T09:14:02.825Z,91.39
2023-03-12T09:15:02.385Z,91.39
2023-03-12T09:15:43.117Z,91.55
2023-03-12T09:16:43.119Z,91.55
2023-03-12T09:17:43.119Z,91.66
2023-03-12T09:18:43.086Z,91.66
2023-03-12T09:19:43.096Z,91.76
2023-03-12T09:20:43.099Z,91.76
2023-03-12T09:21:43.066Z,91.66
2023-03-12T09:22:43.090Z,91.55
2023-03-12T09:23:43.096Z,91.55
2023-03-12T09:24:43.016Z,91.55
2023-03-12T09:25:43.016Z,91.62
2023-03-12T09:26:42.971Z,91.72
2023-03-12T09:27:42.979Z,91.72
2023-03-12T09:28:42.957Z,91.72
2023-03-12T09:29:57.194Z,91.52
2023-03-12T09:30:42.984Z,91.41
2023-03-12T09:31:42.937Z,91.41
2023-03-12T09:32:42.957Z,91.62
2023-03-12T09:33:42.911Z,91.52
2023-03-12T09:34:42.933Z,91.31
2023-03-12T09:35:42.969Z,91.20
2023-03-12T09:36:42.935Z,91.20
2023-03-12T09:37:42.874Z,91.20
2023-03-12T09:38:42.875Z,91.27
2023-03-12T09:39:42.863Z,91.37
2023-03-12T09:40:42.862Z,91.16
2023-03-12T09:41:42.859Z,91.06
2023-03-12T09:42:42.816Z,91.16
2023-03-12T09:43:42.829Z,90.95
2023-03-12T09:44:42.885Z,91.27
2023-03-12T09:45:42.815Z,91.16
2023-03-12T09:46:42.739Z,91.47
2023-03-12T09:47:42.804Z,91.58
2023-03-12T09:48:42.749Z,91.68
2023-03-12T09:49:42.743Z,91.64
2023-03-12T09:50:42.723Z,91.64
2023-03-12T09:51:42.810Z,91.74
2023-03-12T09:52:42.763Z,91.85
2023-03-12T09:53:42.743Z,92.26
2023-03-12T09:54:42.724Z,92.36
2023-03-12T09:55:42.652Z,92.57
2023-03-12T09:56:42.658Z,92.68
2023-03-12T09:57:42.672Z,92.57
2023-03-12T09:58:42.616Z,92.68
2023-03-12T09:59:42.655Z,92.68
2023-03-12T10:00:42.621Z,92.68
2023-03-12T10:01:42.642Z,92.78
2023-03-12T10:02:42.605Z,93.60
2023-03-12T10:03:42.611Z,93.81
2023-03-12T10:04:58.429Z,93.81
2023-03-12T10:05:42.616Z,94.17
2023-03-12T10:06:42.544Z,94.37
2023-03-12T10:07:42.566Z,94.43
2023-03-12T10:08:42.541Z,94.17
2023-03-12T10:09:42.526Z,94.37
2023-03-12T10:10:42.548Z,94.43
2023-03-12T10:11:42.504Z,94.43
2023-03-12T10:12:42.505Z,94.43
2023-03-12T10:13:42.469Z,94.54
2023-03-12T10:14:42.466Z,94.43
2023-03-12T10:15:42.476Z,94.85
2023-03-12T10:16:42.452Z,94.74
2023-03-12T10:17:42.422Z,95.06
2023-03-12T10:18:42.591Z,95.26
2023-03-12T10:19:42.438Z,95.37
2023-03-12T10:20:43.072Z,95.43
2023-03-12T10:21:42.391Z,95.32
2023-03-12T10:22:42.363Z,95.26
2023-03-12T10:23:42.388Z,95.68
2023-03-12T10:24:42.349Z,95.89
2023-03-12T10:25:42.367Z,95.89
2023-03-12T10:26:42.313Z,96.03
2023-03-12T10:27:42.328Z,96.45
2023-03-12T10:28:42.338Z,96.30
2023-03-12T10:29:44.690Z,96.20
2023-03-12T10:30:42.295Z,96.20
2023-03-12T10:31:42.253Z,96.61
2023-03-12T10:32:42.281Z,96.72
2023-03-12T10:33:42.242Z,96.82
2023-03-12T10:34:42.307Z,96.92
2023-03-12T10:35:42.331Z,96.78
2023-03-12T10:36:43.077Z,96.57
2023-03-12T10:37:42.201Z,96.57
2023-03-12T10:38:42.170Z,96.78
2023-03-12T10:39:42.216Z,96.88
2023-03-12T10:40:42.211Z,96.78
2023-03-12T10:41:42.150Z,96.88
2023-03-12T10:42:42.127Z,96.98
2023-03-12T10:43:43.107Z,97.19
2023-03-12T10:44:42.134Z,97.50
2023-03-12T10:45:42.120Z,97.56
2023-03-12T10:46:42.219Z,97.56
2023-03-12T10:47:43.082Z,97.41
2023-03-12T10:48:42.069Z,97.10
2023-03-12T10:49:42.084Z,97.20
2023-03-12T10:50:42.068Z,97.52
2023-03-12T10:51:42.068Z,97.52
2023-03-12T10:52:42.045Z,97.36
2023-03-12T10:53:42.381Z,97.36
2023-03-12T10:54:42.052Z,97.26
2023-03-12T10:55:42.308Z,97.16
2023-03-12T10:56:42.005Z,97.26
2023-03-12T10:57:41.983Z,97.16
2023-03-12T10:58:41.954Z,96.89
2023-03-12T10:59:41.981Z,97.31
2023-03-12T11:00:41.948Z,97.41
2023-03-12T11:01:41.981Z,97.52
2023-03-12T11:02:41.957Z,97.72
2023-03-12T11:03:43.724Z,97.72
2023-03-12T11:04:43.596Z,97.83
2023-03-12T11:05:41.918Z,97.93
2023-03-12T11:06:41.910Z,98.03
2023-03-12T11:07:41.954Z,98.24
2023-03-12T11:08:42.021Z,98.24
2023-03-12T11:09:41.879Z,98.24
2023-03-12T11:10:41.861Z,98.34
2023-03-12T11:11:41.804Z,98.34
2023-03-12T11:12:41.819Z,98.44
2023-03-12T11:13:41.795Z,98.40
2023-03-12T11:14:41.782Z,98.30
2023-03-12T11:15:41.958Z,98.30
2023-03-12T11:16:41.732Z,98.30
2023-03-12T11:17:41.767Z,98.30
2023-03-12T11:18:41.736Z,98.50
2023-03-12T11:19:41.729Z,98.40
2023-03-12T11:20:41.762Z,98.50
2023-03-12T11:21:41.720Z,98.50
2023-03-12T11:22:41.727Z,98.40
2023-03-12T11:23:41.684Z,98.61
2023-03-12T11:24:41.676Z,98.71
2023-03-12T11:25:41.664Z,98.77
2023-03-12T11:26:42.664Z,98.87
2023-03-12T11:27:41.920Z,98.77
2023-03-12T11:28:41.628Z,99.08
2023-03-12T11:29:41.620Z,99.08
2023-03-12T11:30:41.659Z,98.87
2023-03-12T11:31:41.800Z,99.18
2023-03-12T11:32:41.670Z,99.18
2023-03-12T11:33:41.563Z,99.14
2023-03-12T11:34:41.583Z,99.49
2023-03-12T11:35:41.629Z,99.80
2023-03-12T11:36:41.615Z,99.91
2023-03-12T11:37:41.520Z,99.99
2023-03-12T11:38:41.517Z,99.99
2023-03-12T11:39:41.522Z,99.99
2023-03-12T11:40:41.490Z,99.99
2023-03-12T11:41:41.520Z,99.99
2023-03-12T11:42:41.485Z,99.99
2023-03-12T11:43:44.037Z,99.99
2023-03-12T11:44:41.424Z,99.99
2023-03-12T11:45:41.420Z,99.92
2023-03-12T11:46:41.474Z,99.99
2023-03-12T11:47:41.847Z,99.99
2023-03-12T11:48:41.434Z,99.99
2023-03-12T11:49:41.383Z,99.99
2023-03-12T11:50:41.356Z,99.93
2023-03-12T11:51:41.357Z,99.99
2023-03-12T11:52:41.364Z,99.82
2023-03-12T11:53:41.424Z,99.93
2023-03-12T11:54:41.341Z,99.88
2023-03-12T11:55:41.335Z,99.52
2023-03-12T11:56:41.322Z,99.57
2023-03-12T11:57:41.306Z,99.47
2023-03-12T11:58:41.318Z,99.57
2023-03-12T11:59:41.285Z,99.52
2023-03-12T12:00:41.309Z,99.52
2023-03-12T12:01:41.314Z,99.72
2023-03-12T12:02:41.240Z,99.78
2023-03-12T12:03:41.245Z,99.88
2023-03-12T12:04:41.199Z,99.99
2023-03-12T12:05:41.345Z,99.88
2023-03-12T12:06:41.229Z,99.99
2023-03-12T12:07:41.217Z,99.99
2023-03-12T12:08:41.215Z,99.99
2023-03-12T12:09:41.149Z,99.73
2023-03-12T12:10:41.174Z,99.84
2023-03-12T12:11:41.638Z,99.73
2023-03-12T12:12:41.100Z,99.73
2023-03-12T12:13:41.142Z,99.99
2023-03-12T12:14:41.093Z,99.94
2023-03-12T12:15:41.106Z,99.94
2023-03-12T12:16:41.127Z,99.84
2023-03-12T12:17:41.114Z,99.84
2023-03-12T12:18:41.073Z,99.63
2023-03-12T12:19:41.059Z,99.84
2023-03-12T12:20:41.077Z,99.84
2023-03-12T12:21:41.081Z,99.94
2023-03-12T12:22:41.004Z,99.99
2023-03-12T12:23:41.067Z,99.99
2023-03-12T12:24:41.005Z,99.99
2023-03-12T12:25:41.012Z,99.90
2023-03-12T12:26:41.011Z,99.90
2023-03-12T12:27:40.971Z,99.79
2023-03-12T12:28:40.996Z,99.79
2023-03-12T12:29:40.969Z,99.69
2023-03-12T12:30:40.955Z,99.90
2023-03-12T12:31:40.987Z,99.90
2023-03-12T12:32:40.993Z,99.99
2023-03-12T12:33:40.890Z,99.99
2023-03-12T12:34:40.930Z,99.99
2023-03-12T12:35:40.878Z,99.99
2023-03-12T12:36:41.048Z,99.99
2023-03-12T12:37:40.834Z,99.99
2023-03-12T12:38:40.847Z,99.99
2023-03-12T12:39:40.875Z,99.99
2023-03-12T12:40:40.839Z,99.99
2023-03-12T12:41:40.846Z,99.99
2023-03-12T12:42:40.830Z,99.99
2023-03-12T12:43:40.813Z,99.99
2023-03-12T12:44:40.773Z,99.99
2023-03-12T12:45:40.851Z,99.99
2023-03-12T12:46:40.850Z,99.99
2023-03-12T12:47:40.754Z,99.99
2023-03-12T12:48:40.753Z,99.99
2023-03-12T12:49:40.720Z,99.99
2023-03-12T12:50:40.715Z,99.99
2023-03-12T12:51:41.588Z,99.99
2023-03-12T12:52:40.709Z,99.99